createdAt,value
2018-07-02T00:00:13.643Z,68.00
2018-07-02T00:02:42.496Z,68.00
2018-07-02T00:05:11.380Z,67.60
2018-07-02T00:07:40.226Z,67.60
2018-07-02T00:10:09.456Z,67.70
2018-07-02T00:12:38.304Z,67.70
2018-07-02T00:15:07.272Z,68.00
2018-07-02T00:17:36.138Z,68.20
2018-07-02T00:20:05.626Z,67.80
2018-07-02T00:22:34.480Z,68.00
2018-07-02T00:25:03.364Z,67.90
2018-07-02T00:27:32.264Z,67.60
2018-07-02T00:30:01.123Z,68.50
2018-07-02T00:32:29.980Z,67.70
2018-07-02T00:34:58.850Z,67.50
2018-07-02T00:37:27.729Z,67.60
2018-07-02T00:39:56.614Z,68.00
2018-07-02T00:42:25.465Z,67.90
2018-07-02T00:44:54.340Z,68.00
2018-07-02T00:47:23.192Z,68.00
2018-07-02T00:49:52.025Z,68.00
2018-07-02T00:52:20.917Z,68.20
2018-07-02T00:54:49.755Z,68.10
2018-07-02T00:57:18.593Z,68.00
2018-07-02T00:59:47.421Z,68.10
2018-07-02T01:02:16.292Z,67.80
2018-07-02T01:04:45.164Z,67.80
2018-07-02T01:07:13.976Z,67.80
2018-07-02T01:09:42.816Z,67.70
2018-07-02T01:12:11.661Z,67.70
2018-07-02T01:14:40.506Z,67.20
2018-07-02T01:17:09.335Z,67.30
2018-07-02T01:19:38.183Z,67.30
2018-07-02T01:22:07.016Z,67.30
2018-07-02T01:24:35.852Z,67.60
2018-07-02T01:27:04.777Z,68.00
2018-07-02T01:29:33.622Z,67.60
2018-07-02T01:32:02.468Z,67.60
2018-07-02T01:34:31.304Z,67.60
2018-07-02T01:37:00.179Z,67.60
2018-07-02T01:39:29.057Z,67.90
2018-07-02T01:41:57.948Z,68.00
2018-07-02T01:44:26.838Z,68.70
2018-07-02T01:46:55.701Z,68.90
2018-07-02T01:49:24.537Z,68.90
2018-07-02T01:51:53.450Z,69.20
2018-07-02T01:54:22.297Z,69.00
2018-07-02T01:56:51.197Z,68.80
2018-07-02T01:59:20.026Z,69.30
2018-07-02T02:01:48.856Z,69.20
2018-07-02T02:04:17.746Z,69.30
2018-07-02T02:06:46.637Z,69.20
2018-07-02T02:09:15.468Z,68.80
2018-07-02T02:11:44.320Z,68.70
2018-07-02T02:14:13.162Z,68.70
2018-07-02T02:16:42.026Z,69.00
2018-07-02T02:19:10.876Z,69.10
2018-07-02T02:21:39.725Z,69.30
2018-07-02T02:24:08.603Z,68.90
2018-07-02T02:26:37.454Z,69.10
2018-07-02T02:29:06.282Z,69.20
2018-07-02T02:31:35.127Z,69.40
2018-07-02T02:34:04.057Z,69.50
2018-07-02T02:36:32.908Z,69.80
2018-07-02T02:39:01.764Z,69.70
2018-07-02T02:41:30.665Z,70.20
2018-07-02T02:43:59.554Z,70.40
2018-07-02T02:46:28.513Z,70.20
2018-07-02T02:48:57.409Z,69.80
2018-07-02T02:51:26.269Z,70.00
2018-07-02T02:53:55.153Z,70.30
2018-07-02T02:56:24.019Z,70.50
2018-07-02T02:58:52.922Z,70.80
2018-07-02T03:01:21.753Z,70.40
2018-07-02T03:03:50.618Z,70.80
2018-07-02T03:06:19.461Z,70.80
2018-07-02T03:08:48.287Z,71.50
2018-07-02T03:11:17.125Z,71.60
2018-07-02T03:13:45.973Z,71.90
2018-07-02T03:16:14.832Z,71.60
2018-07-02T03:18:43.679Z,71.50
2018-07-02T03:21:13.295Z,71.80
2018-07-02T03:23:42.197Z,71.60
2018-07-02T03:26:11.717Z,71.70
2018-07-02T03:28:40.856Z,71.80
2018-07-02T03:31:09.711Z,71.80
2018-07-02T03:33:38.585Z,71.90
2018-07-02T03:36:07.461Z,71.90
2018-07-02T03:38:36.296Z,71.80
2018-07-02T03:41:05.131Z,72.00
2018-07-02T03:43:34.003Z,71.90
2018-07-02T03:46:03.045Z,71.90
2018-07-02T03:48:32.084Z,71.80
2018-07-02T03:51:01.023Z,71.80
2018-07-02T03:53:30.023Z,72.00
2018-07-02T03:55:58.908Z,72.20
2018-07-02T03:58:27.917Z,72.10
2018-07-02T04:00:56.894Z,72.10
2018-07-02T04:03:25.783Z,71.70
2018-07-02T04:05:54.623Z,72.00
2018-07-02T04:08:23.481Z,71.50
2018-07-02T04:10:52.400Z,71.70
2018-07-02T04:13:21.355Z,71.30
2018-07-02T04:15:50.177Z,71.00
2018-07-02T04:18:19.017Z,71.40
2018-07-02T04:20:47.912Z,71.40
2018-07-02T04:23:16.757Z,71.40
2018-07-02T04:25:45.613Z,71.00
2018-07-02T04:28:14.470Z,70.70
2018-07-02T04:30:43.348Z,70.20
2018-07-02T04:35:47.326Z,71.50
2018-07-02T04:38:16.140Z,71.10
2018-07-02T04:40:45.098Z,71.10
2018-07-02T04:43:13.988Z,72.10
2018-07-02T04:45:42.844Z,71.20
2018-07-02T04:48:11.805Z,70.50
2018-07-02T04:50:40.619Z,70.30
2018-07-02T04:53:09.453Z,70.80
2018-07-02T04:55:38.286Z,70.70
2018-07-02T05:00:35.679Z,70.30
2018-07-02T05:05:34.210Z,71.20
2018-07-02T05:08:03.897Z,71.70
2018-07-02T05:10:32.892Z,70.40
2018-07-02T05:13:01.793Z,70.20
2018-07-02T05:15:30.677Z,69.60
2018-07-02T05:17:59.570Z,70.40
2018-07-02T05:20:28.985Z,70.10
2018-07-02T05:22:57.926Z,69.70
2018-07-02T05:25:26.918Z,70.10
2018-07-02T05:27:55.839Z,70.10
2018-07-02T05:30:24.650Z,68.90
2018-07-02T05:32:53.527Z,68.50
2018-07-02T05:35:22.357Z,67.90
2018-07-02T05:37:51.193Z,68.10
2018-07-02T05:40:20.017Z,68.90
2018-07-02T05:42:48.857Z,65.80
2018-07-02T05:45:17.721Z,67.80
2018-07-02T05:47:46.576Z,66.40
2018-07-02T05:50:15.517Z,65.60
2018-07-02T05:52:44.466Z,67.60
2018-07-02T05:55:13.358Z,66.00
2018-07-02T05:57:42.537Z,64.30
2018-07-02T06:00:11.866Z,61.70
2018-07-02T06:02:40.925Z,60.80
2018-07-02T06:05:09.730Z,63.10
2018-07-02T06:07:38.600Z,59.70
2018-07-02T06:10:07.514Z,60.10
2018-07-02T06:12:36.360Z,58.90
2018-07-02T06:15:05.247Z,58.50
2018-07-02T06:17:34.204Z,59.70
2018-07-02T06:20:03.474Z,58.70
2018-07-02T06:22:32.349Z,58.60
2018-07-02T06:25:01.259Z,57.70
2018-07-02T06:27:30.225Z,57.40
2018-07-02T06:29:59.307Z,57.40
2018-07-02T06:32:28.293Z,57.60
2018-07-02T06:34:57.215Z,57.40
2018-07-02T06:37:26.083Z,55.80
2018-07-02T06:39:54.945Z,56.60
2018-07-02T06:42:23.767Z,56.70
2018-07-02T06:44:52.634Z,57.20
2018-07-02T06:47:21.476Z,56.80
2018-07-02T06:49:50.349Z,57.30
2018-07-02T06:52:19.255Z,56.50
2018-07-02T06:54:48.637Z,57.20
2018-07-02T06:57:17.528Z,55.80
2018-07-02T06:59:46.368Z,56.60
2018-07-02T07:02:15.279Z,55.80
2018-07-02T07:04:44.108Z,55.50
2018-07-02T07:07:13.009Z,54.70
2018-07-02T07:09:41.828Z,55.30
2018-07-02T07:14:39.292Z,55.00
2018-07-02T07:17:08.137Z,54.90
2018-07-02T07:19:36.973Z,54.00
2018-07-02T07:22:05.816Z,53.70
2018-07-02T07:24:34.786Z,55.30
2018-07-02T07:27:03.983Z,53.40
2018-07-02T07:29:33.024Z,52.90
2018-07-02T07:32:01.977Z,55.40
2018-07-02T07:34:30.867Z,52.80
2018-07-02T07:36:59.751Z,52.10
2018-07-02T07:39:28.641Z,53.50
2018-07-02T07:41:57.539Z,54.10
2018-07-02T07:44:26.545Z,52.40
2018-07-02T07:46:55.433Z,51.70
2018-07-02T07:49:24.424Z,53.10
2018-07-02T07:51:53.400Z,52.40
2018-07-02T07:56:50.819Z,49.60
2018-07-02T07:59:19.668Z,48.60
2018-07-02T08:01:48.494Z,48.60
2018-07-02T08:04:17.357Z,49.70
2018-07-02T08:06:46.206Z,48.30
2018-07-02T08:09:15.018Z,47.50
2018-07-02T08:11:43.849Z,48.40
2018-07-02T08:14:12.721Z,47.60
2018-07-02T08:16:41.593Z,45.00
2018-07-02T08:19:10.471Z,47.20
2018-07-02T08:21:39.327Z,47.10
2018-07-02T08:24:08.179Z,47.20
2018-07-02T08:26:37.073Z,47.50
2018-07-02T08:29:05.940Z,48.40
2018-07-02T08:34:03.562Z,48.30
2018-07-02T08:36:32.518Z,47.50
2018-07-02T08:39:01.692Z,50.10
2018-07-02T08:41:30.672Z,48.50
2018-07-02T08:43:59.719Z,47.00
2018-07-02T08:46:28.672Z,47.70
2018-07-02T08:48:57.685Z,48.70
2018-07-02T08:53:55.329Z,48.40
2018-07-02T08:56:24.252Z,48.90
2018-07-02T08:59:00.003Z,49.40
2018-07-02T09:01:28.993Z,49.80
2018-07-02T09:03:57.916Z,50.40
2018-07-02T09:06:26.981Z,51.90
2018-07-02T09:08:55.901Z,67.60
2018-07-02T09:11:24.753Z,50.30
2018-07-02T09:13:53.597Z,50.50
2018-07-02T09:16:22.438Z,56.20
2018-07-02T09:18:51.521Z,51.00
2018-07-02T09:21:20.393Z,51.90
2018-07-02T09:23:49.269Z,50.60
2018-07-02T09:26:18.144Z,51.40
2018-07-02T09:28:47.136Z,51.70
2018-07-02T09:31:16.011Z,51.00
2018-07-02T09:33:44.908Z,65.70
2018-07-02T09:36:13.800Z,58.20
2018-07-02T09:38:42.681Z,53.90
2018-07-02T09:41:11.737Z,54.10
2018-07-02T09:43:40.613Z,52.10
2018-07-02T09:46:09.641Z,54.50
2018-07-02T09:48:38.536Z,51.90
2018-07-02T09:51:07.413Z,65.00
2018-07-02T09:53:36.241Z,73.80
2018-07-02T09:56:05.120Z,55.00
2018-07-02T09:58:33.984Z,59.70
2018-07-02T10:01:02.840Z,53.50
2018-07-02T10:03:31.834Z,55.50
2018-07-02T10:06:01.035Z,67.40
2018-07-02T10:08:30.042Z,52.20
2018-07-02T10:10:59.017Z,55.00
2018-07-02T10:13:28.492Z,52.80
2018-07-02T10:15:57.520Z,69.40
2018-07-02T10:18:26.393Z,58.40
2018-07-02T10:20:55.261Z,53.50
2018-07-02T10:23:24.131Z,65.00
2018-07-02T10:25:53.055Z,57.90
2018-07-02T10:28:21.929Z,54.70
2018-07-02T10:30:50.825Z,54.70
2018-07-02T10:33:19.616Z,53.70
2018-07-02T10:35:48.544Z,54.80
2018-07-02T10:38:18.184Z,50.70
2018-07-02T10:40:47.039Z,51.40
2018-07-02T10:43:15.929Z,52.60
2018-07-02T10:45:44.801Z,53.50
2018-07-02T10:48:13.697Z,65.30
2018-07-02T10:50:42.835Z,54.10
2018-07-02T10:53:11.705Z,64.20
2018-07-02T10:55:40.907Z,58.40
2018-07-02T10:58:10.014Z,52.70
2018-07-02T11:00:38.868Z,61.30
2018-07-02T11:03:07.732Z,59.20
2018-07-02T11:05:36.573Z,53.10
2018-07-02T11:08:05.514Z,50.70
2018-07-02T11:10:34.422Z,49.70
2018-07-02T11:13:08.627Z,50.90
2018-07-02T11:15:37.889Z,68.50
2018-07-02T11:18:06.953Z,60.60
2018-07-02T11:20:36.273Z,54.50
2018-07-02T11:23:05.162Z,50.20
2018-07-02T11:25:34.381Z,69.40
2018-07-02T11:28:03.242Z,58.00
2018-07-02T11:30:32.108Z,52.90
2018-07-02T11:33:01.493Z,47.90
2018-07-02T11:35:30.424Z,51.20
2018-07-02T11:37:59.399Z,51.40
2018-07-02T11:40:28.282Z,71.40
2018-07-02T11:42:57.189Z,51.50
2018-07-02T11:45:26.090Z,55.90
2018-07-02T11:47:54.933Z,74.00
2018-07-02T11:50:23.760Z,76.20
2018-07-02T11:52:52.716Z,72.20
2018-07-02T11:55:21.532Z,74.30
2018-07-02T11:57:50.398Z,58.20
2018-07-02T12:00:19.262Z,77.40
2018-07-02T12:02:48.128Z,78.90
2018-07-02T12:05:16.945Z,69.80
2018-07-02T12:10:14.295Z,74.40
2018-07-02T12:12:43.121Z,71.00
2018-07-02T12:15:11.969Z,66.00
2018-07-02T12:17:40.800Z,54.10
2018-07-02T12:20:09.661Z,57.30
2018-07-02T12:22:38.528Z,57.50
2018-07-02T12:25:07.352Z,53.50
2018-07-02T12:27:36.196Z,53.10
2018-07-02T12:30:05.127Z,54.00
2018-07-02T12:32:33.990Z,49.90
2018-07-02T12:35:02.853Z,48.10
2018-07-02T12:37:31.778Z,49.80
2018-07-02T12:40:00.716Z,64.80
2018-07-02T12:42:29.656Z,65.80
2018-07-02T12:44:58.568Z,66.90
2018-07-02T12:47:27.502Z,76.60
2018-07-02T12:49:56.365Z,70.10
2018-07-02T12:52:25.294Z,72.50
2018-07-02T12:54:54.151Z,71.90
2018-07-02T12:57:23.004Z,62.10
2018-07-02T12:59:51.840Z,57.90
2018-07-02T13:02:20.705Z,64.70
2018-07-02T13:04:49.566Z,64.60
2018-07-02T13:07:18.460Z,70.00
2018-07-02T13:09:47.330Z,68.80
2018-07-02T13:12:16.209Z,70.60
2018-07-02T13:14:45.085Z,59.80
2018-07-02T13:17:14.144Z,77.30
2018-07-02T13:19:43.038Z,70.30
2018-07-02T13:22:12.614Z,70.20
2018-07-02T13:24:41.524Z,56.10
2018-07-02T13:27:10.372Z,52.80
2018-07-02T13:29:39.224Z,63.60
2018-07-02T13:32:08.129Z,72.20
2018-07-02T13:34:36.985Z,75.00
2018-07-02T13:37:05.836Z,77.70
2018-07-02T13:39:34.748Z,68.50
2018-07-02T13:42:03.658Z,58.30
2018-07-02T13:44:32.590Z,67.00
2018-07-02T13:47:01.653Z,72.80
2018-07-02T13:49:30.528Z,63.30
2018-07-02T13:51:59.410Z,75.90
2018-07-02T13:54:28.360Z,78.30
2018-07-02T13:56:57.643Z,56.60
2018-07-02T13:59:26.636Z,77.20
2018-07-02T14:01:55.487Z,55.50
2018-07-02T14:04:24.344Z,57.60
2018-07-02T14:06:53.325Z,53.80
2018-07-02T14:09:22.158Z,74.20
2018-07-02T14:11:51.291Z,68.40
2018-07-02T14:14:20.183Z,62.90
2018-07-02T14:19:17.561Z,77.80
2018-07-02T14:21:46.545Z,68.50
2018-07-02T14:26:44.009Z,78.90
2018-07-02T14:29:12.886Z,80.10
2018-07-02T14:31:41.754Z,70.20
2018-07-02T14:34:10.618Z,74.50
2018-07-02T14:36:39.519Z,74.90
2018-07-02T14:39:11.094Z,70.30
2018-07-02T14:41:39.880Z,79.50
2018-07-02T14:44:08.934Z,79.00
2018-07-02T14:46:37.768Z,78.10
2018-07-02T14:49:06.716Z,70.60
2018-07-02T14:51:35.626Z,58.50
2018-07-02T14:54:04.584Z,69.80
2018-07-02T14:56:33.466Z,76.00
2018-07-02T14:59:02.417Z,58.80
2018-07-02T15:01:31.433Z,76.80
2018-07-02T15:04:00.348Z,78.20
2018-07-02T15:06:29.279Z,80.10
2018-07-02T15:08:58.194Z,58.10
2018-07-02T15:11:27.271Z,73.30
2018-07-02T15:13:56.162Z,77.50
2018-07-02T15:16:25.048Z,79.40
2018-07-02T15:18:53.988Z,73.40
2018-07-02T15:21:22.844Z,70.20
2018-07-02T15:23:51.704Z,78.10
2018-07-02T15:26:21.349Z,73.10
2018-07-02T15:28:50.201Z,62.90
2018-07-02T15:31:19.185Z,65.80
2018-07-02T15:33:48.027Z,79.80
2018-07-02T15:36:16.952Z,80.70
2018-07-02T15:38:45.853Z,80.90
2018-07-02T15:41:14.760Z,81.20
2018-07-02T15:43:43.623Z,81.90
2018-07-02T15:46:12.472Z,72.30
2018-07-02T15:48:41.321Z,78.30
2018-07-02T15:51:10.169Z,80.70
2018-07-02T15:53:39.158Z,80.50
2018-07-02T15:56:08.041Z,64.10
2018-07-02T15:58:36.971Z,80.90
2018-07-02T16:01:05.829Z,82.00
2018-07-02T16:03:34.731Z,59.10
2018-07-02T16:06:03.601Z,58.70
2018-07-02T16:08:32.629Z,70.50
2018-07-02T16:11:01.574Z,77.20
2018-07-02T16:13:30.479Z,79.30
2018-07-02T16:15:59.429Z,80.50
2018-07-02T16:18:28.355Z,75.00
2018-07-02T16:20:57.249Z,80.70
2018-07-02T16:23:26.676Z,80.20
2018-07-02T16:25:55.564Z,68.10
2018-07-02T16:28:24.436Z,76.70
2018-07-02T16:30:53.309Z,72.50
2018-07-02T16:33:22.176Z,57.50
2018-07-02T16:35:51.046Z,77.00
2018-07-02T16:38:19.893Z,65.50
2018-07-02T16:40:48.840Z,68.90
2018-07-02T16:43:17.681Z,79.40
2018-07-02T16:45:46.534Z,80.40
2018-07-02T16:48:15.411Z,68.40
2018-07-02T16:50:44.252Z,66.30
2018-07-02T16:53:13.164Z,78.50
2018-07-02T16:55:41.928Z,76.40
2018-07-02T17:03:08.493Z,71.60
2018-07-02T17:05:37.745Z,79.70
2018-07-02T17:08:06.627Z,77.70
2018-07-02T17:10:35.492Z,79.10
2018-07-02T17:13:04.502Z,80.40
2018-07-02T17:15:33.478Z,81.20
2018-07-02T17:20:30.950Z,80.80
2018-07-02T17:22:59.905Z,75.90
2018-07-02T17:25:28.833Z,78.90
2018-07-02T17:27:57.806Z,79.90
2018-07-02T17:30:26.714Z,76.10
2018-07-02T17:32:55.601Z,80.20
2018-07-02T17:35:24.456Z,80.10
2018-07-02T17:37:53.852Z,80.20
2018-07-02T17:40:22.724Z,80.90
2018-07-02T17:42:51.564Z,77.70
2018-07-02T17:45:20.449Z,77.80
2018-07-02T17:47:49.368Z,80.70
2018-07-02T17:50:18.225Z,76.00
2018-07-02T17:55:15.594Z,76.60
2018-07-02T17:57:44.425Z,74.40
2018-07-02T18:00:13.288Z,75.40
2018-07-02T18:02:42.142Z,79.50
2018-07-02T18:05:12.400Z,75.50
2018-07-02T18:07:41.246Z,78.40
2018-07-02T18:10:10.078Z,73.00
2018-07-02T18:12:38.964Z,73.10
2018-07-02T18:15:07.824Z,74.90
2018-07-02T18:17:36.764Z,78.50
2018-07-02T18:20:05.561Z,72.30
2018-07-02T18:22:34.460Z,78.60
2018-07-02T18:25:03.326Z,80.20
2018-07-02T18:27:32.276Z,80.40
2018-07-02T18:30:01.241Z,74.70
2018-07-02T18:32:30.159Z,72.30
2018-07-02T18:34:59.140Z,70.60
2018-07-02T18:37:28.394Z,71.70
2018-07-02T18:39:57.298Z,78.60
2018-07-02T18:42:26.161Z,71.90
2018-07-02T18:44:55.116Z,71.50
2018-07-02T18:47:23.973Z,73.60
2018-07-02T18:49:52.824Z,78.50
2018-07-02T18:52:21.664Z,72.90
2018-07-02T18:54:50.493Z,71.70
2018-07-02T18:57:19.337Z,76.50
2018-07-02T18:59:48.552Z,71.80
2018-07-02T19:02:17.407Z,78.40
2018-07-02T19:04:46.272Z,72.60
2018-07-02T19:07:15.105Z,71.00
2018-07-02T19:09:43.947Z,71.10
2018-07-02T19:12:12.789Z,72.20
2018-07-02T19:14:41.649Z,79.20
2018-07-02T19:17:10.512Z,73.60
2018-07-02T19:19:39.345Z,67.80
2018-07-02T19:22:08.169Z,69.30
2018-07-02T19:24:37.035Z,71.60
2018-07-02T19:27:05.901Z,70.50
2018-07-02T19:29:34.834Z,73.90
2018-07-02T19:32:03.593Z,68.50
2018-07-02T19:34:32.485Z,79.00
2018-07-02T19:37:01.385Z,70.20
2018-07-02T19:39:30.292Z,66.90
2018-07-02T19:41:59.185Z,73.20
2018-07-02T19:44:28.081Z,74.50
2018-07-02T19:46:56.960Z,78.70
2018-07-02T19:49:25.882Z,79.10
2018-07-02T19:51:55.177Z,72.70
2018-07-02T19:54:24.065Z,76.30
2018-07-02T19:56:52.974Z,74.60
2018-07-02T19:59:21.866Z,73.30
2018-07-02T20:01:50.717Z,74.60
2018-07-02T20:04:19.549Z,70.90
2018-07-02T20:06:48.430Z,66.50
2018-07-02T20:09:17.305Z,68.90
2018-07-02T20:11:46.109Z,65.50
2018-07-02T20:14:14.976Z,66.70
2018-07-02T20:16:43.956Z,68.50
2018-07-02T20:19:12.880Z,73.20
2018-07-02T20:21:41.635Z,71.70
2018-07-02T20:24:10.489Z,65.50
2018-07-02T20:26:39.316Z,65.70
2018-07-02T20:29:08.165Z,65.20
2018-07-02T20:31:37.019Z,65.50
2018-07-02T20:34:05.852Z,65.30
2018-07-02T20:36:34.885Z,65.00
2018-07-02T20:39:05.899Z,65.50
2018-07-02T20:41:34.735Z,65.40
2018-07-02T20:44:03.720Z,65.70
2018-07-02T20:46:32.621Z,65.30
2018-07-02T20:49:01.874Z,66.00
2018-07-02T20:51:30.796Z,65.10
2018-07-02T20:53:59.777Z,64.80
2018-07-02T20:56:28.670Z,65.30
2018-07-02T21:01:26.056Z,65.20
2018-07-02T21:03:54.973Z,64.80
2018-07-02T21:06:24.830Z,65.40
2018-07-02T21:08:53.680Z,65.70
2018-07-02T21:11:22.581Z,65.20
2018-07-02T21:13:51.525Z,67.00
2018-07-02T21:16:20.397Z,65.90
2018-07-02T21:18:49.269Z,67.50
2018-07-02T21:21:18.105Z,67.10
2018-07-02T21:23:46.924Z,67.50
2018-07-02T21:26:15.812Z,69.80
2018-07-02T21:28:44.645Z,66.30
2018-07-02T21:31:13.496Z,67.90
2018-07-02T21:33:42.364Z,68.30
2018-07-02T21:36:11.201Z,67.20
2018-07-02T21:38:40.029Z,67.00
2018-07-02T21:41:08.904Z,69.70
2018-07-02T21:43:37.732Z,66.90
2018-07-02T21:46:06.566Z,67.90
2018-07-02T21:48:35.410Z,67.10
2018-07-02T21:51:04.268Z,67.60
2018-07-02T21:53:33.241Z,67.10
2018-07-02T21:56:02.132Z,67.00
2018-07-02T21:58:31.087Z,67.80
2018-07-02T22:00:59.956Z,67.30
2018-07-02T22:03:28.869Z,67.70
2018-07-02T22:05:57.738Z,67.50
2018-07-02T22:08:26.625Z,68.00
2018-07-02T22:10:55.499Z,67.60
2018-07-02T22:13:24.349Z,67.90
2018-07-02T22:15:53.181Z,68.10
2018-07-02T22:18:22.048Z,68.20
2018-07-02T22:20:50.992Z,68.10
2018-07-02T22:23:19.784Z,68.00
2018-07-02T22:25:48.626Z,68.00
2018-07-02T22:28:17.516Z,68.10
2018-07-02T22:30:46.348Z,68.30
2018-07-02T22:33:15.225Z,68.30
2018-07-02T22:35:44.945Z,68.70
2018-07-02T22:38:13.785Z,69.20
2018-07-02T22:40:42.637Z,69.50
2018-07-02T22:43:11.612Z,69.60
2018-07-02T22:45:40.473Z,69.20
2018-07-02T22:48:09.301Z,69.40
2018-07-02T22:50:38.149Z,69.60
2018-07-02T22:53:07.257Z,70.50
2018-07-02T22:55:47.440Z,70.50
2018-07-02T22:58:16.330Z,70.60
2018-07-02T23:00:45.163Z,70.50
2018-07-02T23:03:13.990Z,71.10
2018-07-02T23:05:42.848Z,71.00
2018-07-02T23:08:11.744Z,71.30
2018-07-02T23:10:40.617Z,72.10
2018-07-02T23:13:09.445Z,71.50
2018-07-02T23:15:38.276Z,71.50
2018-07-02T23:18:07.111Z,71.90
2018-07-02T23:20:35.987Z,72.50
2018-07-02T23:23:05.085Z,72.20
2018-07-02T23:25:33.960Z,72.40
2018-07-02T23:28:03.142Z,72.70
2018-07-02T23:30:32.807Z,72.70
2018-07-02T23:33:01.717Z,72.90
2018-07-02T23:35:30.585Z,73.20
2018-07-02T23:37:59.473Z,73.90
2018-07-02T23:40:28.367Z,73.30
2018-07-02T23:42:57.278Z,73.60
2018-07-02T23:45:26.787Z,73.80
2018-07-02T23:47:55.699Z,73.50
2018-07-02T23:50:24.538Z,73.90
2018-07-02T23:52:53.385Z,73.90
2018-07-02T23:55:22.226Z,74.30
2018-07-02T23:57:51.079Z,74.90
